WetterOnline ( https://www.wetteronline.de )

Wetter aktuell San Filippo Superiore

Aktuelles Wetter: Messina (51m)

6-stündlich | Neueste Meldungen
Ortszeit Temperatur Wetter
Fr, 05.03. 19:00 13.0° C wolkig
Fr, 05.03. 13:00 14.2° C wolkig
Fr, 05.03. 7:00 8.0° C leicht bewölkt
Fr, 05.03. 1:00 9.0° C wolkenlos
Do, 04.03. 19:00 12.2° C fast wolkenlos
Do, 04.03. 13:00 15.0° C leicht bewölkt
Do, 04.03. 7:00 10.0° C wolkenlos
Do, 04.03. 1:00 8.8° C wolkenlos
Ortszeit Temperatur Wetter
Fr, 05.03. 20:00 12.8° C wolkig
Fr, 05.03. 19:55 13° C leicht bewölkt
Fr, 05.03. 19:00 13.0° C wolkig
Fr, 05.03. 18:55 13° C leicht bewölkt
Fr, 05.03. 18:00 13.4° C wolkig
Fr, 05.03. 17:55 13° C leicht bewölkt
Fr, 05.03. 17:00 13.4° C wolkig
Fr, 05.03. 16:55 13° C leicht bewölkt
Fr, 05.03. 16:00 14.0° C bewölkt
Ortszeit Relative Feuchte Sichtweite
Fr, 05.03. 19:00 62% 16 km
Fr, 05.03. 13:00 53% 20 km
Fr, 05.03. 7:00 76% 20 km
Fr, 05.03. 1:00 60% 18 km
Do, 04.03. 19:00 - 15 km
Do, 04.03. 13:00 38% 15 km
Do, 04.03. 7:00 73% 20 km
Do, 04.03. 1:00 78% 16 km
Ortszeit Relative Feuchte Sichtweite
Fr, 05.03. 20:00 65% 10 km
Fr, 05.03. 19:55 62% >10 km
Fr, 05.03. 19:00 62% 16 km
Fr, 05.03. 18:55 62% >10 km
Fr, 05.03. 18:00 62% 20 km
Fr, 05.03. 17:55 62% >10 km
Fr, 05.03. 17:00 54% 20 km
Fr, 05.03. 16:55 54% >10 km
Fr, 05.03. 16:00 55% 20 km
Ortszeit Niederschlagsmenge Niederschlagsart
Fr, 05.03. 19:00 0.0 l/m2 in 12 Std. -
Fr, 05.03. 13:00 0.0 l/m2 in 6 Std. -
Fr, 05.03. 7:00 0.0 l/m2 in 12 Std. -
Fr, 05.03. 1:00 0.0 l/m2 in 6 Std. -
Do, 04.03. 19:00 0.0 l/m2 in 12 Std. -
Do, 04.03. 13:00 0.0 l/m2 in 6 Std. -
Do, 04.03. 7:00 0.0 l/m2 in 12 Std. -
Do, 04.03. 1:00 0.0 l/m2 in 6 Std. -
Ortszeit Niederschlagsmenge Niederschlagsart
Fr, 05.03. 20:00 keine Meldung -
Fr, 05.03. 19:55 keine Meldung -
Fr, 05.03. 19:00 keine Meldung -
Fr, 05.03. 18:55 keine Meldung -
Fr, 05.03. 18:00 keine Meldung -
Fr, 05.03. 17:55 keine Meldung -
Fr, 05.03. 17:00 keine Meldung -
Fr, 05.03. 16:55 keine Meldung -
Fr, 05.03. 16:00 keine Meldung -
Ortszeit Stärke Spitze Richtung
km/h Bft. km/h Grad Sektor
Fr, 05.03. 19:00 4 1 - 230° SW
Fr, 05.03. 13:00 7 2 - 10° N
Fr, 05.03. 7:00 0 0 - - -
Fr, 05.03. 1:00 0 0 - - -
Do, 04.03. 19:00 4 1 - 330° NW
Do, 04.03. 13:00 15 3 - 360° N
Do, 04.03. 7:00 4 1 - 340° N
Do, 04.03. 1:00 0 0 - - -
Ortszeit Stärke Spitze Richtung
km/h Bft. km/h Grad Sektor
Fr, 05.03. 20:00 2 1 - 300° NW
Fr, 05.03. 19:55 2 1 - 300° NW
Fr, 05.03. 19:00 4 1 - 230° SW
Fr, 05.03. 18:55 4 1 - 230° SW
Fr, 05.03. 18:00 7 2 - 230° SW
Fr, 05.03. 17:55 7 2 - 230° SW
Fr, 05.03. 17:00 7 2 - 220° SW
Fr, 05.03. 16:55 7 2 - 220° SW
Fr, 05.03. 16:00 7 2 - 200° S
Ortszeit Untergrenze Bedeckung Gattung
total tief tief mittel hoch
Fr, 05.03. 19:00 1050 m 6/8 2/8 Sc As -
Fr, 05.03. 13:00 1050 m 7/8 1/8 Sc As Cs
Fr, 05.03. 7:00 2400 m 5/8 3/8 - Ac Ci
Fr, 05.03. 1:00 - 0/8 0/8 - - -
Do, 04.03. 19:00 6000 m 1/8 1/8 - - Ci
Do, 04.03. 13:00 780 m 5/8 2/8 Sc Ac Ci
Do, 04.03. 7:00 - 0/8 0/8 - - -
Do, 04.03. 1:00 - 0/8 0/8 - - -
Ortszeit Bedeckungsgrad in Achtel und Wolkenuntergrenze
Fr, 05.03. 20:00 2(900m) 5(2400m)
Fr, 05.03. 19:55 1-2(900m)
Fr, 05.03. 19:00 2(1050m) 5(2400m)
Fr, 05.03. 18:55 1-2(1050m)
Fr, 05.03. 18:00 1(1050m) 4(2400m)
Fr, 05.03. 17:55 1-2(1050m)
Fr, 05.03. 17:00 1(1050m) 5(2400m)
Fr, 05.03. 16:55 1-2(1050m)
Fr, 05.03. 16:00 2(1050m) 6(2400m)
Ortszeit Luftdruck NN (hPa) Tendenz (hPa in 3 Std.)
Fr, 05.03. 19:00 1018 + 0,5
Fr, 05.03. 13:00 1019 - 1,0
Fr, 05.03. 7:00 1020 - 0,7
Fr, 05.03. 1:00 1022 - 0,2
Do, 04.03. 19:00 1023 - 0,9
Do, 04.03. 13:00 1025 - 1,4
Do, 04.03. 7:00 1027 - 0,4
Do, 04.03. 1:00 1030 - 0,2
Ortszeit Luftdruck NN (hPa) Tendenz (hPa in 3 Std.)
Fr, 05.03. 20:00 1019 + 0,8
Fr, 05.03. 19:55 1018 keine Meldung
Fr, 05.03. 19:00 1018 + 0,5
Fr, 05.03. 18:55 1018 keine Meldung
Fr, 05.03. 18:00 1018 - 0,1
Fr, 05.03. 17:55 1017 keine Meldung
Fr, 05.03. 17:00 1018 - 0,6
Fr, 05.03. 16:55 1017 keine Meldung
Fr, 05.03. 16:00 1018 - 0,9
Ortszeit Schneehöhe (cm)
Fr, 05.03. 19:00 -
Fr, 05.03. 13:00 -
Fr, 05.03. 7:00 0
Fr, 05.03. 1:00 -
Do, 04.03. 19:00 -
Do, 04.03. 13:00 -
Do, 04.03. 7:00 0
Do, 04.03. 1:00 -
Ortszeit Schneehöhe (cm)
Fr, 05.03. 20:00 -
Fr, 05.03. 19:55 -
Fr, 05.03. 19:00 -
Fr, 05.03. 18:55 -
Fr, 05.03. 18:00 -
Fr, 05.03. 17:55 -
Fr, 05.03. 17:00 -
Fr, 05.03. 16:55 -
Fr, 05.03. 16:00 -
Link zu dieser Seite / Seite empfehlen

Das Wetter in ...